sensor_id;sensor_type;location;lat;lon;timestamp;pressure;altitude;pressure_sealevel;temperature;humidity
24558;BME280;12726;49.148;8.582;2022-10-04T00:00:26;101221.63;;;7.04;100.00
24558;BME280;12726;49.148;8.582;2022-10-04T00:03:17;101214.59;;;7.03;100.00
24558;BME280;12726;49.148;8.582;2022-10-04T00:06:12;101208.06;;;6.98;100.00
24558;BME280;12726;49.148;8.582;2022-10-04T00:09:04;101219.47;;;7.00;100.00
24558;BME280;12726;49.148;8.582;2022-10-04T00:11:53;101205.06;;;7.01;100.00
24558;BME280;12726;49.148;8.582;2022-10-04T00:14:42;101195.53;;;6.98;100.00
24558;BME280;12726;49.148;8.582;2022-10-04T00:17:30;101191.38;;;6.96;100.00
24558;BME280;12726;49.148;8.582;2022-10-04T00:23:45;101187.03;;;6.95;100.00
24558;BME280;12726;49.148;8.582;2022-10-04T00:30:14;101193.88;;;6.89;100.00
24558;BME280;12726;49.148;8.582;2022-10-04T00:33:03;101200.41;;;6.87;100.00
24558;BME280;12726;49.148;8.582;2022-10-04T00:35:49;101197.72;;;6.87;100.00
24558;BME280;12726;49.148;8.582;2022-10-04T00:38:34;101199.56;;;6.86;100.00
24558;BME280;12726;49.148;8.582;2022-10-04T00:41:20;101192.03;;;6.90;100.00
24558;BME280;12726;49.148;8.582;2022-10-04T00:44:11;101183.66;;;6.93;100.00
24558;BME280;12726;49.148;8.582;2022-10-04T00:47:01;101179.31;;;6.92;100.00
24558;BME280;12726;49.148;8.582;2022-10-04T00:49:52;101183.34;;;6.88;100.00
24558;BME280;12726;49.148;8.582;2022-10-04T00:52:43;101182.16;;;6.90;100.00
24558;BME280;12726;49.148;8.582;2022-10-04T00:55:35;101182.84;;;6.92;100.00
24558;BME280;12726;49.148;8.582;2022-10-04T00:58:25;101185.34;;;6.94;100.00
24558;BME280;12726;49.148;8.582;2022-10-04T01:01:11;101185.19;;;6.95;100.00
24558;BME280;12726;49.148;8.582;2022-10-04T01:03:57;101183.66;;;6.93;100.00
24558;BME280;12726;49.148;8.582;2022-10-04T01:06:46;101186.66;;;6.90;100.00
24558;BME280;12726;49.148;8.582;2022-10-04T01:09:35;101174.97;;;6.91;100.00
24558;BME280;12726;49.148;8.582;2022-10-04T01:12:31;101177.47;;;6.92;100.00
24558;BME280;12726;49.148;8.582;2022-10-04T01:15:25;101177.63;;;6.91;100.00
24558;BME280;12726;49.148;8.582;2022-10-04T01:18:15;101169.97;;;6.88;100.00
24558;BME280;12726;49.148;8.582;2022-10-04T01:21:23;101170.13;;;6.86;100.00
24558;BME280;12726;49.148;8.582;2022-10-04T01:24:20;101160.25;;;6.87;100.00
24558;BME280;12726;49.148;8.582;2022-10-04T01:27:32;101166.44;;;6.87;100.00
24558;BME280;12726;49.148;8.582;2022-10-04T01:30:18;101161.75;;;6.89;100.00
24558;BME280;12726;49.148;8.582;2022-10-04T01:33:03;101146.53;;;6.90;100.00
24558;BME280;12726;49.148;8.582;2022-10-04T01:35:50;101152.91;;;6.89;100.00
24558;BME280;12726;49.148;8.582;2022-10-04T01:38:35;101144.03;;;6.88;100.00
24558;BME280;12726;49.148;8.582;2022-10-04T01:41:26;101140.34;;;6.89;100.00
24558;BME280;12726;49.148;8.582;2022-10-04T01:44:22;101124.78;;;6.85;100.00
24558;BME280;12726;49.148;8.582;2022-10-04T01:47:12;101109.41;;;6.87;100.00
24558;BME280;12726;49.148;8.582;2022-10-04T01:50:01;101118.44;;;6.86;100.00
24558;BME280;12726;49.148;8.582;2022-10-04T01:52:50;101117.44;;;6.87;100.00
24558;BME280;12726;49.148;8.582;2022-10-04T01:55:40;101120.13;;;6.87;100.00
24558;BME280;12726;49.148;8.582;2022-10-04T01:58:29;101123.97;;;6.84;100.00
24558;BME280;12726;49.148;8.582;2022-10-04T02:01:21;101116.94;;;6.83;100.00
24558;BME280;12726;49.148;8.582;2022-10-04T02:04:10;101111.56;;;6.83;100.00
24558;BME280;12726;49.148;8.582;2022-10-04T02:06:59;101104.38;;;6.84;100.00
24558;BME280;12726;49.148;8.582;2022-10-04T02:09:49;101113.78;;;6.80;100.00
24558;BME280;12726;49.148;8.582;2022-10-04T02:12:43;101103.06;;;6.80;100.00
24558;BME280;12726;49.148;8.582;2022-10-04T02:15:30;101102.22;;;6.79;100.00
24558;BME280;12726;49.148;8.582;2022-10-04T02:18:18;101108.41;;;6.80;100.00
24558;BME280;12726;49.148;8.582;2022-10-04T02:21:05;101109.09;;;6.82;100.00
24558;BME280;12726;49.148;8.582;2022-10-04T02:23:52;101097.72;;;6.80;100.00
24558;BME280;12726;49.148;8.582;2022-10-04T02:26:37;101098.56;;;6.80;100.00
24558;BME280;12726;49.148;8.582;2022-10-04T02:29:23;101094.88;;;6.81;100.00
24558;BME280;12726;49.148;8.582;2022-10-04T02:32:10;101091.00;;;6.84;100.00
24558;BME280;12726;49.148;8.582;2022-10-04T02:35:16;101093.50;;;6.85;100.00
24558;BME280;12726;49.148;8.582;2022-10-04T02:38:06;101093.69;;;6.84;100.00
24558;BME280;12726;49.148;8.582;2022-10-04T02:40:55;101081.97;;;6.85;100.00
24558;BME280;12726;49.148;8.582;2022-10-04T02:43:45;101090.00;;;6.85;100.00
24558;BME280;12726;49.148;8.582;2022-10-04T02:46:37;101088.31;;;6.84;100.00
24558;BME280;12726;49.148;8.582;2022-10-04T02:49:31;101091.38;;;6.81;100.00
24558;BME280;12726;49.148;8.582;2022-10-04T02:52:20;101092.69;;;6.77;100.00
24558;BME280;12726;49.148;8.582;2022-10-04T02:55:12;101071.13;;;6.70;100.00
24558;BME280;12726;49.148;8.582;2022-10-04T02:58:08;101079.34;;;6.68;100.00
24558;BME280;12726;49.148;8.582;2022-10-04T03:00:57;101077.69;;;6.67;100.00
24558;BME280;12726;49.148;8.582;2022-10-04T03:03:44;101078.00;;;6.64;100.00
24558;BME280;12726;49.148;8.582;2022-10-04T03:06:32;101065.63;;;6.63;100.00
24558;BME280;12726;49.148;8.582;2022-10-04T03:09:19;101066.31;;;6.65;100.00
24558;BME280;12726;49.148;8.582;2022-10-04T03:12:05;101067.97;;;6.66;100.00
24558;BME280;12726;49.148;8.582;2022-10-04T03:14:54;101064.63;;;6.64;100.00
24558;BME280;12726;49.148;8.582;2022-10-04T03:17:40;101066.31;;;6.65;100.00
24558;BME280;12726;49.148;8.582;2022-10-04T03:20:28;101068.31;;;6.63;100.00
24558;BME280;12726;49.148;8.582;2022-10-04T03:23:16;101071.81;;;6.64;100.00
24558;BME280;12726;49.148;8.582;2022-10-04T03:26:12;101076.34;;;6.63;100.00
24558;BME280;12726;49.148;8.582;2022-10-04T03:29:05;101070.66;;;6.66;100.00
24558;BME280;12726;49.148;8.582;2022-10-04T03:31:54;101064.78;;;6.71;100.00
24558;BME280;12726;49.148;8.582;2022-10-04T03:34:41;101061.09;;;6.72;100.00
24558;BME280;12726;49.148;8.582;2022-10-04T03:37:34;101048.56;;;6.73;100.00
24558;BME280;12726;49.148;8.582;2022-10-04T03:40:23;101060.94;;;6.74;100.00
24558;BME280;12726;49.148;8.582;2022-10-04T03:43:11;101065.94;;;6.68;100.00
24558;BME280;12726;49.148;8.582;2022-10-04T03:45:58;101057.78;;;6.62;100.00
24558;BME280;12726;49.148;8.582;2022-10-04T03:48:47;101062.47;;;6.60;100.00
24558;BME280;12726;49.148;8.582;2022-10-04T03:51:33;101059.97;;;6.58;100.00
24558;BME280;12726;49.148;8.582;2022-10-04T03:54:22;101060.81;;;6.59;100.00
24558;BME280;12726;49.148;8.582;2022-10-04T03:57:12;101063.50;;;6.59;100.00
24558;BME280;12726;49.148;8.582;2022-10-04T03:59:58;101062.97;;;6.63;100.00
24558;BME280;12726;49.148;8.582;2022-10-04T04:02:46;101076.84;;;6.67;100.00
24558;BME280;12726;49.148;8.582;2022-10-04T04:05:36;101073.34;;;6.66;100.00
24558;BME280;12726;49.148;8.582;2022-10-04T04:08:29;101071.00;;;6.63;100.00
24558;BME280;12726;49.148;8.582;2022-10-04T04:11:20;101071.34;;;6.60;100.00
24558;BME280;12726;49.148;8.582;2022-10-04T04:14:11;101070.84;;;6.57;100.00
24558;BME280;12726;49.148;8.582;2022-10-04T04:17:20;101082.38;;;6.49;100.00
24558;BME280;12726;49.148;8.582;2022-10-04T04:20:20;101090.25;;;6.43;100.00
24558;BME280;12726;49.148;8.582;2022-10-04T04:23:22;101095.28;;;6.38;100.00
24558;BME280;12726;49.148;8.582;2022-10-04T04:26:13;101092.75;;;6.36;100.00
24558;BME280;12726;49.148;8.582;2022-10-04T04:29:06;101088.41;;;6.35;100.00
24558;BME280;12726;49.148;8.582;2022-10-04T04:31:59;101095.59;;;6.35;100.00
24558;BME280;12726;49.148;8.582;2022-10-04T04:34:49;101099.13;;;6.35;100.00
24558;BME280;12726;49.148;8.582;2022-10-04T04:37:37;101094.28;;;6.39;100.00
24558;BME280;12726;49.148;8.582;2022-10-04T04:40:24;101089.56;;;6.41;100.00
24558;BME280;12726;49.148;8.582;2022-10-04T04:43:13;101078.88;;;6.41;100.00
24558;BME280;12726;49.148;8.582;2022-10-04T04:46:01;101082.22;;;6.43;100.00
24558;BME280;12726;49.148;8.582;2022-10-04T04:48:52;101079.06;;;6.39;100.00
24558;BME280;12726;49.148;8.582;2022-10-04T04:51:40;101081.72;;;6.47;100.00
24558;BME280;12726;49.148;8.582;2022-10-04T04:54:31;101091.56;;;6.47;100.00
24558;BME280;12726;49.148;8.582;2022-10-04T04:57:17;101092.41;;;6.47;100.00
24558;BME280;12726;49.148;8.582;2022-10-04T05:00:02;101098.59;;;6.48;100.00
24558;BME280;12726;49.148;8.582;2022-10-04T05:02:52;101096.91;;;6.47;100.00
24558;BME280;12726;49.148;8.582;2022-10-04T05:05:43;101090.25;;;6.43;100.00
24558;BME280;12726;49.148;8.582;2022-10-04T05:08:30;101092.44;;;6.39;100.00
24558;BME280;12726;49.148;8.582;2022-10-04T05:11:18;101096.28;;;6.37;100.00
24558;BME280;12726;49.148;8.582;2022-10-04T05:14:08;101096.44;;;6.35;100.00
24558;BME280;12726;49.148;8.582;2022-10-04T05:16:54;101096.78;;;6.32;100.00
24558;BME280;12726;49.148;8.582;2022-10-04T05:19:40;101097.78;;;6.31;100.00
24558;BME280;12726;49.148;8.582;2022-10-04T05:22:27;101103.31;;;6.29;100.00
24558;BME280;12726;49.148;8.582;2022-10-04T05:25:17;101097.28;;;6.27;100.00
24558;BME280;12726;49.148;8.582;2022-10-04T05:28:12;101117.84;;;6.27;100.00
24558;BME280;12726;49.148;8.582;2022-10-04T05:31:23;101116.00;;;6.27;100.00
24558;BME280;12726;49.148;8.582;2022-10-04T05:34:17;101115.84;;;6.29;100.00
24558;BME280;12726;49.148;8.582;2022-10-04T05:37:17;101121.84;;;6.31;100.00
24558;BME280;12726;49.148;8.582;2022-10-04T05:40:20;101115.50;;;6.32;100.00
24558;BME280;12726;49.148;8.582;2022-10-04T05:43:22;101117.00;;;6.35;100.00
24558;BME280;12726;49.148;8.582;2022-10-04T05:46:16;101115.16;;;6.35;100.00
24558;BME280;12726;49.148;8.582;2022-10-04T05:49:06;101115.47;;;6.40;100.00
24558;BME280;12726;49.148;8.582;2022-10-04T05:51:58;101106.13;;;6.44;100.00
24558;BME280;12726;49.148;8.582;2022-10-04T05:54:44;101108.81;;;6.52;100.00
24558;BME280;12726;49.148;8.582;2022-10-04T05:57:37;101106.94;;;6.61;100.00
24558;BME280;12726;49.148;8.582;2022-10-04T06:00:34;101094.75;;;6.66;100.00
24558;BME280;12726;49.148;8.582;2022-10-04T06:03:34;101093.22;;;6.64;100.00
24558;BME280;12726;49.148;8.582;2022-10-04T06:06:29;101082.53;;;6.64;100.00
24558;BME280;12726;49.148;8.582;2022-10-04T06:09:30;101077.31;;;6.71;100.00
24558;BME280;12726;49.148;8.582;2022-10-04T06:12:26;101079.47;;;6.83;100.00
24558;BME280;12726;49.148;8.582;2022-10-04T06:15:29;101077.63;;;6.84;100.00
24558;BME280;12726;49.148;8.582;2022-10-04T06:22:07;101084.78;;;6.91;100.00
24558;BME280;12726;49.148;8.582;2022-10-04T06:25:01;101083.59;;;7.02;100.00
24558;BME280;12726;49.148;8.582;2022-10-04T06:27:53;101086.56;;;7.15;100.00
24558;BME280;12726;49.148;8.582;2022-10-04T06:30:45;101087.84;;;7.27;100.00
24558;BME280;12726;49.148;8.582;2022-10-04T06:33:53;101085.59;;;7.39;100.00
24558;BME280;12726;49.148;8.582;2022-10-04T06:36:53;101093.44;;;7.48;100.00
24558;BME280;12726;49.148;8.582;2022-10-04T06:40:15;101108.28;;;7.59;100.00
24558;BME280;12726;49.148;8.582;2022-10-04T06:43:25;101117.28;;;7.66;100.00
24558;BME280;12726;49.148;8.582;2022-10-04T06:46:24;101118.06;;;7.75;100.00
24558;BME280;12726;49.148;8.582;2022-10-04T06:49:20;101119.22;;;7.80;100.00
24558;BME280;12726;49.148;8.582;2022-10-04T06:52:41;101118.50;;;7.86;100.00
24558;BME280;12726;49.148;8.582;2022-10-04T06:55:39;101124.81;;;7.94;100.00
24558;BME280;12726;49.148;8.582;2022-10-04T06:58:57;101122.16;;;7.94;100.00
24558;BME280;12726;49.148;8.582;2022-10-04T07:01:50;101125.13;;;7.99;100.00
24558;BME280;12726;49.148;8.582;2022-10-04T07:04:41;101126.56;;;8.09;100.00
24558;BME280;12726;49.148;8.582;2022-10-04T07:07:31;101140.44;;;8.13;100.00
24558;BME280;12726;49.148;8.582;2022-10-04T07:10:30;101145.09;;;8.19;100.00
24558;BME280;12726;49.148;8.582;2022-10-04T07:13:29;101136.88;;;8.20;100.00
24558;BME280;12726;49.148;8.582;2022-10-04T07:16:31;101140.09;;;8.39;100.00
24558;BME280;12726;49.148;8.582;2022-10-04T07:19:29;101135.16;;;8.50;100.00
24558;BME280;12726;49.148;8.582;2022-10-04T07:22:21;101134.88;;;8.60;100.00
24558;BME280;12726;49.148;8.582;2022-10-04T07:25:14;101129.75;;;8.73;100.00
24558;BME280;12726;49.148;8.582;2022-10-04T07:28:10;101133.56;;;8.93;100.00
24558;BME280;12726;49.148;8.582;2022-10-04T07:31:24;101134.69;;;9.14;100.00
24558;BME280;12726;49.148;8.582;2022-10-04T07:34:15;101140.47;;;9.47;100.00
24558;BME280;12726;49.148;8.582;2022-10-04T07:37:08;101134.69;;;9.79;100.00
24558;BME280;12726;49.148;8.582;2022-10-04T07:39:58;101125.81;;;10.00;98.62
24558;BME280;12726;49.148;8.582;2022-10-04T07:42:48;101134.94;;;10.20;96.82
24558;BME280;12726;49.148;8.582;2022-10-04T07:45:37;101136.28;;;10.80;93.93
24558;BME280;12726;49.148;8.582;2022-10-04T07:48:24;101129.84;;;11.43;91.67
24558;BME280;12726;49.148;8.582;2022-10-04T07:51:18;101145.16;;;11.84;87.89
24558;BME280;12726;49.148;8.582;2022-10-04T07:54:11;101149.22;;;12.34;85.57
24558;BME280;12726;49.148;8.582;2022-10-04T07:57:07;101143.44;;;12.70;82.00
24558;BME280;12726;49.148;8.582;2022-10-04T08:00:01;101135.84;;;13.38;78.97
24558;BME280;12726;49.148;8.582;2022-10-04T08:03:02;101134.75;;;13.52;74.72
24558;BME280;12726;49.148;8.582;2022-10-04T08:05:58;101124.31;;;14.00;73.49
24558;BME280;12726;49.148;8.582;2022-10-04T08:12:24;101125.97;;;14.01;69.91
24558;BME280;12726;49.148;8.582;2022-10-04T08:15:34;101142.00;;;14.40;70.97
24558;BME280;12726;49.148;8.582;2022-10-04T08:18:29;101145.38;;;14.85;70.54
24558;BME280;12726;49.148;8.582;2022-10-04T08:21:25;101135.50;;;15.34;67.96
24558;BME280;12726;49.148;8.582;2022-10-04T08:24:20;101137.06;;;15.42;67.07
24558;BME280;12726;49.148;8.582;2022-10-04T08:27:24;101139.13;;;15.64;67.93
24558;BME280;12726;49.148;8.582;2022-10-04T08:30:14;101137.66;;;15.98;66.60
24558;BME280;12726;49.148;8.582;2022-10-04T08:33:05;101131.13;;;16.29;63.13
24558;BME280;12726;49.148;8.582;2022-10-04T08:36:01;101131.94;;;16.30;64.84
24558;BME280;12726;49.148;8.582;2022-10-04T08:38:53;101133.09;;;16.64;62.43
24558;BME280;12726;49.148;8.582;2022-10-04T08:42:14;101131.91;;;16.60;62.23
24558;BME280;12726;49.148;8.582;2022-10-04T08:52:25;101128.03;;;17.26;61.68
24558;BME280;12726;49.148;8.582;2022-10-04T08:55:42;101114.81;;;17.69;57.93
24558;BME280;12726;49.148;8.582;2022-10-04T08:58:50;101114.69;;;18.04;57.99
24558;BME280;12726;49.148;8.582;2022-10-04T09:01:45;101110.94;;;17.93;56.48
24558;BME280;12726;49.148;8.582;2022-10-04T09:04:44;101110.19;;;17.98;59.09
24558;BME280;12726;49.148;8.582;2022-10-04T09:08:08;101102.28;;;17.68;57.37
24558;BME280;12726;49.148;8.582;2022-10-04T09:11:10;101113.44;;;17.83;57.03
24558;BME280;12726;49.148;8.582;2022-10-04T09:14:18;101111.50;;;16.80;58.77
24558;BME280;12726;49.148;8.582;2022-10-04T09:17:18;101105.34;;;16.62;59.74
24558;BME280;12726;49.148;8.582;2022-10-04T09:20:19;101105.47;;;16.90;59.60
24558;BME280;12726;49.148;8.582;2022-10-04T09:23:13;101105.56;;;16.60;59.23
24558;BME280;12726;49.148;8.582;2022-10-04T09:26:08;101115.34;;;17.19;58.95
24558;BME280;12726;49.148;8.582;2022-10-04T09:29:15;101116.03;;;17.50;57.78
24558;BME280;12726;49.148;8.582;2022-10-04T09:35:31;101109.84;;;18.23;56.78
24558;BME280;12726;49.148;8.582;2022-10-04T09:38:33;101105.31;;;18.62;56.37
24558;BME280;12726;49.148;8.582;2022-10-04T09:41:38;101108.88;;;18.79;55.79
24558;BME280;12726;49.148;8.582;2022-10-04T09:47:43;101112.97;;;19.53;50.63
24558;BME280;12726;49.148;8.582;2022-10-04T09:50:46;101111.59;;;19.78;53.01
24558;BME280;12726;49.148;8.582;2022-10-04T09:53:48;101111.16;;;19.86;52.49
24558;BME280;12726;49.148;8.582;2022-10-04T09:56:53;101110.22;;;20.61;50.47
24558;BME280;12726;49.148;8.582;2022-10-04T10:00:11;101103.69;;;21.04;47.80
24558;BME280;12726;49.148;8.582;2022-10-04T10:03:38;101106.34;;;20.89;47.83
24558;BME280;12726;49.148;8.582;2022-10-04T10:06:54;101100.13;;;21.03;47.89
24558;BME280;12726;49.148;8.582;2022-10-04T10:09:52;101102.69;;;20.41;48.38
24558;BME280;12726;49.148;8.582;2022-10-04T10:13:10;101102.78;;;21.35;47.64
24558;BME280;12726;49.148;8.582;2022-10-04T10:16:36;101112.84;;;20.83;47.82
24558;BME280;12726;49.148;8.582;2022-10-04T10:19:40;101101.50;;;21.01;47.58
24558;BME280;12726;49.148;8.582;2022-10-04T10:22:52;101106.03;;;21.27;47.95
24558;BME280;12726;49.148;8.582;2022-10-04T10:26:02;101104.03;;;21.65;49.26
24558;BME280;12726;49.148;8.582;2022-10-04T10:29:15;101099.94;;;20.73;46.80
24558;BME280;12726;49.148;8.582;2022-10-04T10:32:32;101097.69;;;21.07;47.20
24558;BME280;12726;49.148;8.582;2022-10-04T10:35:30;101093.22;;;21.38;45.89
24558;BME280;12726;49.148;8.582;2022-10-04T10:38:29;101085.81;;;20.54;47.62
24558;BME280;12726;49.148;8.582;2022-10-04T10:41:32;101088.19;;;20.14;49.26
24558;BME280;12726;49.148;8.582;2022-10-04T10:44:31;101087.69;;;20.17;49.50
24558;BME280;12726;49.148;8.582;2022-10-04T10:47:34;101085.41;;;20.09;49.19
24558;BME280;12726;49.148;8.582;2022-10-04T10:50:52;101079.28;;;20.55;50.91
24558;BME280;12726;49.148;8.582;2022-10-04T10:54:13;101074.31;;;21.36;49.47
24558;BME280;12726;49.148;8.582;2022-10-04T10:57:17;101084.25;;;21.58;45.36
24558;BME280;12726;49.148;8.582;2022-10-04T11:00:18;101073.19;;;21.32;48.08
24558;BME280;12726;49.148;8.582;2022-10-04T11:16:53;101068.25;;;22.37;45.32
24558;BME280;12726;49.148;8.582;2022-10-04T11:26:49;101045.19;;;22.13;48.97
24558;BME280;12726;49.148;8.582;2022-10-04T11:29:57;101048.63;;;23.10;45.18
24558;BME280;12726;49.148;8.582;2022-10-04T11:36:36;101043.16;;;23.15;43.37
24558;BME280;12726;49.148;8.582;2022-10-04T11:39:47;101042.06;;;21.64;48.13
24558;BME280;12726;49.148;8.582;2022-10-04T11:42:54;101028.47;;;22.04;49.09
24558;BME280;12726;49.148;8.582;2022-10-04T11:45:55;101026.16;;;23.02;45.62
24558;BME280;12726;49.148;8.582;2022-10-04T11:49:01;101029.00;;;23.41;45.49
24558;BME280;12726;49.148;8.582;2022-10-04T11:55:48;101038.16;;;25.07;41.20
24558;BME280;12726;49.148;8.582;2022-10-04T11:59:02;101031.59;;;24.50;42.37
24558;BME280;12726;49.148;8.582;2022-10-04T12:02:16;101025.63;;;24.38;43.55
24558;BME280;12726;49.148;8.582;2022-10-04T12:05:52;101036.31;;;23.66;43.46
24558;BME280;12726;49.148;8.582;2022-10-04T12:08:48;101037.66;;;23.10;45.38
24558;BME280;12726;49.148;8.582;2022-10-04T12:12:06;101032.06;;;23.35;44.51
24558;BME280;12726;49.148;8.582;2022-10-04T12:19:02;101014.44;;;22.56;45.34
24558;BME280;12726;49.148;8.582;2022-10-04T12:22:01;101020.53;;;22.08;47.78
24558;BME280;12726;49.148;8.582;2022-10-04T12:25:01;101007.88;;;21.86;48.21
24558;BME280;12726;49.148;8.582;2022-10-04T12:28:09;101013.59;;;21.65;48.48
24558;BME280;12726;49.148;8.582;2022-10-04T12:31:11;101008.69;;;21.92;49.13
24558;BME280;12726;49.148;8.582;2022-10-04T12:34:07;101005.09;;;21.66;49.27
24558;BME280;12726;49.148;8.582;2022-10-04T12:37:07;100996.03;;;21.56;49.46
24558;BME280;12726;49.148;8.582;2022-10-04T12:40:18;100982.84;;;21.42;48.70
24558;BME280;12726;49.148;8.582;2022-10-04T12:43:11;100993.75;;;21.17;50.38
24558;BME280;12726;49.148;8.582;2022-10-04T12:46:13;100991.19;;;21.10;49.37
24558;BME280;12726;49.148;8.582;2022-10-04T12:49:11;100983.94;;;20.79;51.70
24558;BME280;12726;49.148;8.582;2022-10-04T12:52:04;100983.72;;;20.91;51.78
24558;BME280;12726;49.148;8.582;2022-10-04T12:54:55;100981.19;;;20.74;51.84
24558;BME280;12726;49.148;8.582;2022-10-04T12:57:47;100980.44;;;20.89;51.24
24558;BME280;12726;49.148;8.582;2022-10-04T13:00:40;100977.22;;;21.02;49.96
24558;BME280;12726;49.148;8.582;2022-10-04T13:03:40;100979.13;;;21.01;51.07
24558;BME280;12726;49.148;8.582;2022-10-04T13:06:35;100973.28;;;20.83;51.83
24558;BME280;12726;49.148;8.582;2022-10-04T13:09:32;100975.75;;;20.79;51.81
24558;BME280;12726;49.148;8.582;2022-10-04T13:12:29;100976.06;;;20.88;51.72
24558;BME280;12726;49.148;8.582;2022-10-04T13:15:23;100961.38;;;21.14;52.92
24558;BME280;12726;49.148;8.582;2022-10-04T13:18:21;100963.41;;;20.77;52.40
24558;BME280;12726;49.148;8.582;2022-10-04T13:21:15;100959.50;;;20.62;53.25
24558;BME280;12726;49.148;8.582;2022-10-04T13:24:10;100959.09;;;20.39;53.77
24558;BME280;12726;49.148;8.582;2022-10-04T13:27:04;100954.16;;;20.41;54.17
24558;BME280;12726;49.148;8.582;2022-10-04T13:29:57;100962.00;;;20.32;53.96
24558;BME280;12726;49.148;8.582;2022-10-04T13:32:53;100959.69;;;20.09;54.07
24558;BME280;12726;49.148;8.582;2022-10-04T13:35:46;100957.41;;;20.01;55.17
24558;BME280;12726;49.148;8.582;2022-10-04T13:38:50;100964.44;;;19.91;55.79
24558;BME280;12726;49.148;8.582;2022-10-04T13:41:56;100952.91;;;19.84;56.29
24558;BME280;12726;49.148;8.582;2022-10-04T13:45:04;100954.53;;;19.80;55.00
24558;BME280;12726;49.148;8.582;2022-10-04T13:48:06;100944.03;;;19.67;54.98
24558;BME280;12726;49.148;8.582;2022-10-04T13:51:02;100944.50;;;19.59;55.74
24558;BME280;12726;49.148;8.582;2022-10-04T13:54:02;100937.38;;;19.90;57.47
24558;BME280;12726;49.148;8.582;2022-10-04T13:57:22;100933.59;;;19.64;56.17
24558;BME280;12726;49.148;8.582;2022-10-04T14:00:12;100950.31;;;19.68;55.95
24558;BME280;12726;49.148;8.582;2022-10-04T14:03:14;100950.84;;;19.43;57.21
24558;BME280;12726;49.148;8.582;2022-10-04T14:06:30;100946.47;;;19.15;58.13
24558;BME280;12726;49.148;8.582;2022-10-04T14:09:42;100938.22;;;19.10;57.91
24558;BME280;12726;49.148;8.582;2022-10-04T14:16:20;100930.47;;;19.02;59.93
24558;BME280;12726;49.148;8.582;2022-10-04T14:19:33;100931.63;;;18.84;60.50
24558;BME280;12726;49.148;8.582;2022-10-04T14:22:39;100924.78;;;19.03;60.53
24558;BME280;12726;49.148;8.582;2022-10-04T14:26:01;100926.41;;;19.04;59.16
24558;BME280;12726;49.148;8.582;2022-10-04T14:29:18;100909.94;;;18.94;61.04
24558;BME280;12726;49.148;8.582;2022-10-04T14:32:40;100912.03;;;18.87;59.78
24558;BME280;12726;49.148;8.582;2022-10-04T14:35:34;100901.38;;;18.64;61.13
24558;BME280;12726;49.148;8.582;2022-10-04T14:38:40;100906.53;;;18.60;62.30
24558;BME280;12726;49.148;8.582;2022-10-04T14:41:51;100915.69;;;18.54;62.72
24558;BME280;12726;49.148;8.582;2022-10-04T14:45:02;100915.94;;;18.53;61.65
24558;BME280;12726;49.148;8.582;2022-10-04T14:48:09;100912.13;;;18.54;62.59
24558;BME280;12726;49.148;8.582;2022-10-04T14:51:14;100904.78;;;18.54;64.15
24558;BME280;12726;49.148;8.582;2022-10-04T14:54:07;100902.47;;;18.46;63.63
24558;BME280;12726;49.148;8.582;2022-10-04T14:57:00;100898.03;;;18.40;62.82
24558;BME280;12726;49.148;8.582;2022-10-04T15:00:04;100906.66;;;18.32;62.44
24558;BME280;12726;49.148;8.582;2022-10-04T15:03:10;100896.66;;;18.21;63.12
24558;BME280;12726;49.148;8.582;2022-10-04T15:06:11;100899.81;;;18.13;63.41
24558;BME280;12726;49.148;8.582;2022-10-04T15:09:17;100895.59;;;18.05;63.53
24558;BME280;12726;49.148;8.582;2022-10-04T15:12:28;100894.72;;;17.99;63.30
24558;BME280;12726;49.148;8.582;2022-10-04T15:15:32;100897.13;;;17.96;63.16
24558;BME280;12726;49.148;8.582;2022-10-04T15:18:37;100906.03;;;17.91;63.30
24558;BME280;12726;49.148;8.582;2022-10-04T15:21:42;100901.41;;;17.92;62.53
24558;BME280;12726;49.148;8.582;2022-10-04T15:24:30;100896.53;;;17.94;62.47
24558;BME280;12726;49.148;8.582;2022-10-04T15:30:36;100888.31;;;17.89;63.35
24558;BME280;12726;49.148;8.582;2022-10-04T15:33:37;100887.06;;;17.80;63.12
24558;BME280;12726;49.148;8.582;2022-10-04T15:36:43;100873.03;;;17.71;63.80
24558;BME280;12726;49.148;8.582;2022-10-04T15:39:45;100879.28;;;17.72;64.02
24558;BME280;12726;49.148;8.582;2022-10-04T15:42:36;100869.31;;;17.77;64.68
24558;BME280;12726;49.148;8.582;2022-10-04T15:45:32;100865.94;;;17.70;64.44
24558;BME280;12726;49.148;8.582;2022-10-04T15:48:26;100860.88;;;17.62;64.76
24558;BME280;12726;49.148;8.582;2022-10-04T15:51:22;100870.72;;;17.63;66.24
24558;BME280;12726;49.148;8.582;2022-10-04T15:54:41;100870.38;;;17.59;66.55
24558;BME280;12726;49.148;8.582;2022-10-04T15:57:36;100871.84;;;17.50;66.52
24558;BME280;12726;49.148;8.582;2022-10-04T16:00:28;100866.72;;;17.37;67.58
24558;BME280;12726;49.148;8.582;2022-10-04T16:03:32;100867.13;;;17.29;68.18
24558;BME280;12726;49.148;8.582;2022-10-04T16:06:21;100863.72;;;17.22;68.65
24558;BME280;12726;49.148;8.582;2022-10-04T16:09:18;100859.50;;;17.14;69.29
24558;BME280;12726;49.148;8.582;2022-10-04T16:12:18;100858.25;;;17.05;69.55
24558;BME280;12726;49.148;8.582;2022-10-04T16:15:16;100860.56;;;16.97;69.32
24558;BME280;12726;49.148;8.582;2022-10-04T16:18:23;100863.66;;;16.89;69.70
24558;BME280;12726;49.148;8.582;2022-10-04T16:21:24;100868.50;;;16.87;70.15
24558;BME280;12726;49.148;8.582;2022-10-04T16:24:40;100876.91;;;16.85;70.52
24558;BME280;12726;49.148;8.582;2022-10-04T16:27:43;100886.63;;;16.81;70.97
24558;BME280;12726;49.148;8.582;2022-10-04T16:30:38;100884.63;;;16.76;71.13
24558;BME280;12726;49.148;8.582;2022-10-04T16:33:28;100877.41;;;16.70;71.86